createdAt,value
2019-04-16T00:02:59.532Z,5.66
2019-04-16T00:08:27.444Z,5.61
2019-04-16T00:13:33.618Z,5.55
2019-04-16T00:23:36.329Z,5.36
2019-04-16T00:28:43.458Z,5.35
2019-04-16T00:33:50.584Z,5.33
2019-04-16T00:38:57.515Z,5.30
2019-04-16T00:44:04.535Z,5.30
2019-04-16T00:49:11.496Z,5.26
2019-04-16T00:54:18.578Z,5.22
2019-04-16T00:59:25.469Z,5.19
2019-04-16T01:04:32.478Z,5.15
2019-04-16T01:09:39.572Z,5.11
2019-04-16T01:14:46.606Z,5.05
2019-04-16T01:19:53.590Z,5.00
2019-04-16T01:25:00.525Z,4.96
2019-04-16T01:30:09.569Z,4.94
2019-04-16T01:35:33.622Z,4.90
2019-04-16T01:40:50.939Z,4.86
2019-04-16T01:46:01.558Z,4.84
2019-04-16T01:51:08.465Z,4.84
2019-04-16T01:56:16.607Z,4.83
2019-04-16T02:01:23.436Z,4.86
2019-04-16T02:06:30.585Z,4.86
2019-04-16T02:11:38.871Z,4.87
2019-04-16T02:16:46.422Z,4.87
2019-04-16T02:21:53.479Z,4.85
2019-04-16T02:27:00.450Z,4.83
2019-04-16T02:32:07.593Z,4.83
2019-04-16T02:37:14.538Z,4.87
2019-04-16T02:42:21.478Z,4.87
2019-04-16T02:47:28.589Z,4.85
2019-04-16T02:53:00.389Z,4.82
2019-04-16T02:58:10.791Z,4.80
2019-04-16T03:03:24.918Z,4.75
2019-04-16T03:08:36.168Z,4.75
2019-04-16T03:13:44.462Z,4.69
2019-04-16T03:18:56.429Z,4.62
2019-04-16T03:29:21.594Z,4.42
2019-04-16T03:34:28.837Z,4.38
2019-04-16T03:39:35.589Z,4.38
2019-04-16T03:44:42.492Z,4.30
2019-04-16T03:49:49.465Z,4.30
2019-04-16T03:54:56.594Z,4.24
2019-04-16T04:00:03.554Z,4.13
2019-04-16T04:05:10.502Z,4.06
2019-04-16T04:10:29.758Z,4.06
2019-04-16T04:15:27.252Z,3.98
2019-04-16T04:20:34.419Z,3.92
2019-04-16T04:25:41.511Z,3.86
2019-04-16T04:30:48.930Z,3.81
2019-04-16T04:35:56.441Z,3.79
2019-04-16T04:41:03.630Z,3.76
2019-04-16T04:46:14.558Z,3.73
2019-04-16T04:51:18.310Z,3.73
2019-04-16T04:56:27.998Z,3.75
2019-04-16T05:01:35.421Z,3.77
2019-04-16T05:06:45.066Z,3.82
2019-04-16T05:11:53.592Z,3.98
2019-04-16T05:17:00.606Z,3.98
2019-04-16T05:22:07.586Z,4.30
2019-04-16T05:27:15.228Z,4.30
2019-04-16T05:32:25.654Z,4.63
2019-04-16T05:37:31.918Z,4.63
2019-04-16T05:42:38.732Z,4.82
2019-04-16T05:47:49.003Z,5.01
2019-04-16T05:52:55.567Z,5.19
2019-04-16T05:58:02.455Z,5.58
2019-04-16T06:03:09.461Z,5.58
2019-04-16T06:08:16.456Z,5.74
2019-04-16T06:13:33.911Z,5.91
2019-04-16T06:19:08.367Z,6.10
2019-04-16T06:24:24.248Z,6.32
2019-04-16T06:29:53.386Z,6.52
2019-04-16T06:35:17.230Z,6.72
2019-04-16T06:40:38.464Z,6.91
2019-04-16T06:45:58.222Z,7.10
2019-04-16T06:51:36.574Z,7.32
2019-04-16T06:56:58.700Z,7.68
2019-04-16T07:02:24.872Z,7.85
2019-04-16T07:08:00.933Z,7.85
2019-04-16T07:13:11.213Z,8.06
2019-04-16T07:18:20.508Z,8.22
2019-04-16T07:23:28.284Z,8.34
2019-04-16T07:28:42.844Z,8.50
2019-04-16T07:34:15.915Z,8.68
2019-04-16T07:39:36.984Z,8.89
2019-04-16T07:44:56.399Z,9.12
2019-04-16T07:50:10.515Z,9.31
2019-04-16T07:55:29.249Z,9.67
2019-04-16T08:00:40.314Z,9.67
2019-04-16T08:05:44.297Z,9.97
2019-04-16T08:10:51.402Z,10.21
2019-04-16T08:15:58.442Z,10.49
2019-04-16T08:21:10.133Z,10.77
2019-04-16T08:26:14.437Z,10.99
2019-04-16T08:31:24.857Z,11.25
2019-04-16T08:36:31.663Z,11.50
2019-04-16T08:41:38.475Z,12.05
2019-04-16T08:46:45.485Z,12.05
2019-04-16T08:51:52.473Z,12.31
2019-04-16T08:56:59.493Z,12.50
2019-04-16T09:02:07.413Z,12.70
2019-04-16T09:07:33.266Z,12.99
2019-04-16T09:12:43.447Z,14.12
2019-04-16T09:17:55.280Z,14.12
2019-04-16T09:23:02.583Z,15.09
2019-04-16T09:28:25.745Z,17.22
2019-04-16T09:33:34.578Z,17.22
2019-04-16T09:38:46.284Z,18.65
2019-04-16T09:43:57.387Z,18.65
2019-04-16T09:49:05.937Z,19.16
2019-04-16T09:54:14.030Z,19.66
2019-04-16T09:59:40.263Z,19.72
2019-04-16T10:04:47.519Z,19.72
2019-04-16T10:09:55.651Z,19.98
2019-04-16T10:15:02.467Z,20.13
2019-04-16T10:20:12.745Z,20.31
2019-04-16T10:25:19.612Z,20.31
2019-04-16T10:30:30.599Z,20.40
2019-04-16T10:35:37.552Z,20.06
2019-04-16T10:40:48.612Z,20.06
2019-04-16T10:46:04.430Z,19.99
2019-04-16T10:51:33.504Z,19.99
2019-04-16T10:56:58.578Z,19.82
2019-04-16T11:02:40.092Z,19.68
2019-04-16T11:07:47.266Z,19.68
2019-04-16T11:12:54.466Z,19.59
2019-04-16T11:18:04.497Z,19.55
2019-04-16T11:23:11.625Z,19.65
2019-04-16T11:28:19.430Z,19.78
2019-04-16T11:33:27.683Z,19.81
2019-04-16T11:38:34.623Z,20.04
2019-04-16T11:43:41.569Z,20.34
2019-04-16T11:48:50.348Z,20.54
2019-04-16T11:53:57.585Z,20.83
2019-04-16T11:59:04.585Z,20.94
2019-04-16T12:04:30.313Z,21.26
2019-04-16T12:09:58.475Z,21.70
2019-04-16T12:15:14.506Z,21.70
2019-04-16T12:20:39.580Z,22.16
2019-04-16T12:26:14.770Z,22.74
2019-04-16T12:31:35.818Z,22.74
2019-04-16T12:37:10.302Z,23.26
2019-04-16T12:42:32.772Z,23.26
2019-04-16T12:47:47.610Z,23.15
2019-04-16T12:52:59.316Z,23.45
2019-04-16T12:58:13.430Z,23.45
2019-04-16T13:03:46.286Z,23.51
2019-04-16T13:08:59.259Z,23.66
2019-04-16T13:14:24.520Z,23.47
2019-04-16T13:19:38.264Z,23.91
2019-04-16T13:24:47.801Z,24.18
2019-04-16T13:29:55.582Z,24.25
2019-04-16T13:35:02.431Z,24.09
2019-04-16T13:40:16.083Z,24.09
2019-04-16T13:45:32.265Z,24.24
2019-04-16T13:50:48.600Z,24.60
2019-04-16T13:56:18.627Z,24.62
2019-04-16T14:01:29.267Z,24.91
2019-04-16T14:06:41.272Z,24.91
2019-04-16T14:11:51.163Z,24.97
2019-04-16T14:16:57.620Z,25.07
2019-04-16T14:22:06.471Z,24.97
2019-04-16T14:27:14.479Z,24.72
2019-04-16T14:32:21.589Z,24.69
2019-04-16T14:37:29.252Z,24.95
2019-04-16T14:42:36.617Z,24.95
2019-04-16T14:47:43.613Z,24.80
2019-04-16T14:52:51.508Z,24.73
2019-04-16T14:58:21.678Z,24.73
2019-04-16T15:04:00.848Z,25.22
2019-04-16T15:09:19.753Z,25.22
2019-04-16T15:14:34.395Z,25.28
2019-04-16T15:19:48.566Z,25.36
2019-04-16T15:25:25.121Z,25.45
2019-04-16T15:31:00.720Z,25.45
2019-04-16T15:36:28.256Z,25.51
2019-04-16T15:41:53.429Z,25.10
2019-04-16T15:47:05.852Z,24.95
2019-04-16T15:52:38.916Z,24.54
2019-04-16T15:57:51.288Z,24.51
2019-04-16T16:03:32.920Z,24.53
2019-04-16T16:09:19.264Z,24.07
2019-04-16T16:14:25.331Z,24.07
2019-04-16T16:19:32.454Z,24.16
2019-04-16T16:24:42.223Z,24.19
2019-04-16T16:29:49.600Z,24.00
2019-04-16T16:38:42.058Z,23.70
2019-04-16T16:43:49.475Z,23.70
2019-04-16T16:48:56.754Z,23.58
2019-04-16T16:54:11.687Z,23.34
2019-04-16T16:59:28.374Z,22.54
2019-04-16T17:04:39.124Z,22.54
2019-04-16T17:09:46.572Z,22.11
2019-04-16T17:14:53.535Z,21.32
2019-04-16T17:20:02.276Z,21.32
2019-04-16T17:25:11.668Z,20.83
2019-04-16T17:30:18.265Z,19.99
2019-04-16T17:35:26.490Z,19.15
2019-04-16T17:40:51.154Z,17.90
2019-04-16T17:47:32.501Z,17.26
2019-04-16T17:56:33.391Z,16.52
2019-04-16T18:02:05.270Z,16.52
2019-04-16T18:07:36.415Z,16.19
2019-04-16T18:12:57.571Z,15.84
2019-04-16T18:18:15.676Z,15.28
2019-04-16T18:23:30.308Z,15.02
2019-04-16T18:28:41.604Z,15.02
2019-04-16T18:33:53.875Z,14.63
2019-04-16T18:39:29.269Z,14.63
2019-04-16T18:44:58.238Z,14.43
2019-04-16T18:50:08.732Z,14.26
2019-04-16T18:55:15.618Z,14.08
2019-04-16T19:00:53.857Z,13.94
2019-04-16T19:06:02.261Z,13.79
2019-04-16T19:11:10.357Z,13.65
2019-04-16T19:16:18.519Z,13.52
2019-04-16T19:21:25.478Z,13.44
2019-04-16T19:26:32.604Z,13.30
2019-04-16T19:31:39.593Z,13.09
2019-04-16T19:36:46.585Z,12.99
2019-04-16T19:41:57.512Z,12.99
2019-04-16T19:47:02.486Z,12.91
2019-04-16T19:52:09.581Z,12.81
2019-04-16T19:57:17.120Z,12.62
2019-04-16T20:02:24.601Z,12.53
2019-04-16T20:07:33.579Z,12.46
2019-04-16T20:12:40.612Z,12.34
2019-04-16T20:17:48.675Z,12.29
2019-04-16T20:22:59.210Z,12.29
2019-04-16T20:28:09.346Z,12.28
2019-04-16T20:33:15.488Z,12.20
2019-04-16T20:38:22.456Z,12.12
2019-04-16T20:43:29.854Z,12.08
2019-04-16T20:48:36.605Z,12.01
2019-04-16T20:53:43.591Z,11.83
2019-04-16T20:58:50.939Z,11.74
2019-04-16T21:04:05.065Z,11.74
2019-04-16T21:09:09.094Z,11.66
2019-04-16T21:14:18.876Z,11.60
2019-04-16T21:19:46.719Z,11.54
2019-04-16T21:24:54.455Z,11.47
2019-04-16T21:30:03.021Z,11.40
2019-04-16T21:35:32.030Z,11.28
2019-04-16T21:40:41.084Z,11.28
2019-04-16T21:45:49.032Z,11.19
2019-04-16T21:50:56.544Z,11.01
2019-04-16T21:59:21.088Z,10.88
2019-04-16T22:04:24.300Z,10.81
2019-04-16T22:09:31.428Z,10.66
2019-04-16T22:14:38.570Z,10.61
2019-04-16T22:19:53.784Z,10.52
2019-04-16T22:24:54.965Z,10.52
2019-04-16T22:30:02.162Z,10.46
2019-04-16T22:35:11.695Z,10.39
2019-04-16T22:40:28.271Z,10.32
2019-04-16T22:45:53.276Z,10.22
2019-04-16T22:50:59.370Z,10.14
2019-04-16T22:56:05.311Z,10.04
2019-04-16T23:01:14.132Z,9.94
2019-04-16T23:06:20.308Z,9.84
2019-04-16T23:11:28.604Z,9.75
2019-04-16T23:16:41.699Z,9.55
2019-04-16T23:21:45.612Z,9.55
2019-04-16T23:26:52.588Z,9.34
2019-04-16T23:32:00.276Z,9.25
2019-04-16T23:37:07.434Z,9.25
2019-04-16T23:42:18.812Z,9.19
2019-04-16T23:47:42.864Z,9.09
2019-04-16T23:52:58.709Z,8.98
2019-04-16T23:58:12.645Z,8.78
